Time;durP1;ratioP1;P1;durP2;ratioP2;P2;SDS_P1;SDS_P2;PMS_P1;PMS_P2;Temp;Humidity;BMP_temperature;BMP_pressure;BME280_temperature;BME280_humidity;BME280_pressure;Samples;Min_cycle;Max_cycle;Signal;HPM_P1;HPM_P2
2023/03/21 00:00:35;;;;;;;2.42;1.95;;;10.50;99.90;;;;;;5096197;28;20016;-72
2023/03/21 00:03:01;;;;;;;5.63;2.17;;;10.50;99.90;;;;;;5095688;28;20059;-73
2023/03/21 00:05:27;;;;;;;0.95;0.65;;;10.50;99.90;;;;;;5096175;28;20035;-73
2023/03/21 00:07:53;;;;;;;1.60;1.13;;;10.50;99.90;;;;;;5096109;28;20444;-72
2023/03/21 00:10:19;;;;;;;0.30;0.30;;;10.50;99.90;;;;;;5096111;28;20036;-73
2023/03/21 00:12:45;;;;;;;0.88;0.88;;;10.60;99.90;;;;;;5096163;28;20130;-72
2023/03/21 00:15:11;;;;;;;0.47;0.47;;;10.60;99.90;;;;;;5094730;28;20040;-72
2023/03/21 00:17:38;;;;;;;0.20;0.20;;;10.50;99.90;;;;;;5094269;28;20020;-72
2023/03/21 00:20:13;;;;;;;1.17;0.82;;;10.60;99.90;;;;;;5095994;28;20063;-73
2023/03/21 00:22:40;;;;;;;0.82;0.70;;;10.60;99.90;;;;;;5094585;28;20036;-73
2023/03/21 00:25:08;;;;;;;0.63;0.63;;;10.50;99.90;;;;;;5095800;28;20028;-72
2023/03/21 00:27:35;;;;;;;5.72;2.00;;;10.50;99.90;;;;;;5095533;28;20065;-72
2023/03/21 00:30:01;;;;;;;5.38;0.98;;;10.40;99.90;;;;;;5077521;28;20112;-73
2023/03/21 00:32:27;;;;;;;0.77;0.50;;;10.40;99.90;;;;;;5095335;28;20384;-73
2023/03/21 00:34:52;;;;;;;1.65;0.55;;;10.50;99.90;;;;;;5095622;28;20024;-73
2023/03/21 00:37:18;;;;;;;0.10;0.10;;;10.50;99.90;;;;;;5094485;28;20038;-73
2023/03/21 00:39:47;;;;;;;2.45;1.75;;;10.60;99.90;;;;;;5094067;28;20058;-73
2023/03/21 00:42:15;;;;;;;0.30;0.30;;;10.50;99.90;;;;;;5094169;28;20040;-73
2023/03/21 00:44:43;;;;;;;0.10;0.10;;;10.50;99.90;;;;;;5095241;28;20064;-73
2023/03/21 00:47:13;;;;;;;0.17;0.17;;;10.60;99.90;;;;;;5093856;28;20023;-72
2023/03/21 00:49:39;;;;;;;0.10;0.10;;;10.70;99.90;;;;;;5095165;28;20488;-72
2023/03/21 00:52:07;;;;;;;0.25;0.25;;;10.70;99.90;;;;;;5095371;28;20115;-72
2023/03/21 00:54:34;;;;;;;0.20;0.20;;;10.70;99.90;;;;;;5095119;28;20024;-73
2023/03/21 00:57:01;;;;;;;0.38;0.38;;;10.60;99.90;;;;;;5095202;28;20063;-72
2023/03/21 00:59:27;;;;;;;2.25;2.05;;;10.50;99.90;;;;;;5095021;28;20028;-72
2023/03/21 01:01:53;;;;;;;1.02;0.88;;;10.60;99.90;;;;;;5093580;28;20032;-72
2023/03/21 01:04:20;;;;;;;0.10;0.10;;;10.40;99.90;;;;;;5093932;28;20031;-72
2023/03/21 01:06:46;;;;;;;1.45;1.00;;;10.50;99.90;;;;;;5095470;28;20028;-73
2023/03/21 01:09:18;;;;;;;7.30;1.77;;;10.40;99.90;;;;;;5093557;28;20027;-73
2023/03/21 01:11:44;;;;;;;0.68;0.30;;;10.40;99.90;;;;;;5093783;28;20448;-73
2023/03/21 01:14:11;;;;;;;2.08;0.93;;;10.40;99.90;;;;;;5094740;28;20024;-73
2023/03/21 01:16:37;;;;;;;2.65;1.10;;;10.30;99.90;;;;;;5093435;28;20035;-73
2023/03/21 01:19:05;;;;;;;0.30;0.30;;;10.20;99.90;;;;;;5094758;28;20020;-73
2023/03/21 01:21:32;;;;;;;0.98;0.75;;;10.30;99.90;;;;;;5093262;28;20032;-73
2023/03/21 01:23:58;;;;;;;0.73;0.73;;;10.30;99.90;;;;;;5094444;28;20062;-73
2023/03/21 01:26:24;;;;;;;0.60;0.60;;;10.40;99.90;;;;;;5093315;28;20127;-73
2023/03/21 01:28:50;;;;;;;0.13;0.13;;;10.40;99.90;;;;;;5093583;28;20032;-72
2023/03/21 01:31:17;;;;;;;0.30;0.30;;;10.50;99.90;;;;;;5094146;28;20043;-73
2023/03/21 01:33:43;;;;;;;0.60;0.60;;;10.50;99.90;;;;;;5094532;28;20383;-73
2023/03/21 01:36:16;;;;;;;0.13;0.13;;;10.50;99.90;;;;;;5094247;28;20032;-73
2023/03/21 01:38:43;;;;;;;1.13;0.88;;;10.70;99.90;;;;;;5093077;28;20103;-72
2023/03/21 01:41:37;;;;;;;0.95;0.70;;;10.60;99.90;;;;;;5092809;28;20399;-73
2023/03/21 01:44:04;;;;;;;0.80;0.80;;;10.60;99.90;;;;;;5090535;28;20393;-73
2023/03/21 01:46:48;;;;;;;41.38;6.28;;;10.60;99.90;;;;;;5092376;28;20028;-73
2023/03/21 01:49:37;;;;;;;1.10;0.52;;;10.50;99.90;;;;;;5094220;28;20077;-73
2023/03/21 01:52:18;;;;;;;2.08;1.23;;;10.40;99.90;;;;;;5092746;28;20047;-72
2023/03/21 01:54:46;;;;;;;0.75;0.75;;;10.30;99.90;;;;;;5092912;28;20073;-71
2023/03/21 01:57:20;;;;;;;0.20;0.20;;;10.40;99.90;;;;;;5092574;28;20043;-72
2023/03/21 01:59:53;;;;;;;0.57;0.57;;;10.40;99.90;;;;;;5092444;28;20028;-72
2023/03/21 02:02:49;;;;;;;1.15;1.05;;;10.40;99.90;;;;;;5094047;28;20177;-71
2023/03/21 02:06:01;;;;;;;0.80;0.50;;;10.50;99.90;;;;;;5092385;28;20024;-72
2023/03/21 02:08:34;;;;;;;0.43;0.43;;;10.40;99.90;;;;;;5092590;28;20424;-71
2023/03/21 02:11:06;;;;;;;2.33;1.45;;;10.40;99.90;;;;;;5085950;28;20031;-72
2023/03/21 02:13:40;;;;;;;1.00;1.00;;;10.30;99.90;;;;;;5085890;28;20106;-71
2023/03/21 02:16:18;;;;;;;0.30;0.30;;;10.40;99.90;;;;;;5078273;28;20031;-72
2023/03/21 02:19:03;;;;;;;0.52;0.52;;;10.30;99.90;;;;;;5092467;28;20028;-71
2023/03/21 02:21:50;;;;;;;1.17;1.17;;;10.30;99.90;;;;;;5091853;28;20077;-72
2023/03/21 02:25:05;;;;;;;0.80;0.45;;;10.30;99.90;;;;;;5092160;28;20532;-72
2023/03/21 02:27:33;;;;;;;;;;;10.40;99.90;;;;;;5087035;28;20067;-71
2023/03/21 02:30:45;;;;;;;1.65;1.55;;;10.50;99.90;;;;;;5091949;28;19931;-71
2023/03/21 02:33:26;;;;;;;12.15;1.33;;;10.50;99.90;;;;;;5093650;28;20024;-71
2023/03/21 02:36:11;;;;;;;2.10;0.80;;;10.50;99.90;;;;;;5093280;28;20109;-71
2023/03/21 02:38:52;;;;;;;2.30;2.10;;;10.40;99.90;;;;;;5091892;28;20028;-71
2023/03/21 02:41:26;;;;;;;0.50;0.50;;;10.40;99.90;;;;;;5091782;28;20040;-71
2023/03/21 02:44:05;;;;;;;1.83;1.10;;;10.40;99.90;;;;;;5091658;28;20031;-72
2023/03/21 02:46:43;;;;;;;0.55;0.55;;;10.40;99.90;;;;;;5091819;28;20028;-71
2023/03/21 02:49:55;;;;;;;1.60;1.25;;;10.50;99.90;;;;;;5091892;28;20475;-71
2023/03/21 02:52:27;;;;;;;4.18;2.72;;;10.40;99.90;;;;;;5064239;28;20020;-71
2023/03/21 02:54:54;;;;;;;;;;;10.40;99.90;;;;;;5075084;28;20052;-71
2023/03/21 02:57:23;;;;;;;0.93;0.93;;;10.50;99.90;;;;;;5090970;28;19954;-71
2023/03/21 02:59:51;;;;;;;0.28;0.28;;;10.50;99.90;;;;;;5091673;28;20020;-71
2023/03/21 03:02:23;;;;;;;2.90;1.70;;;10.50;99.90;;;;;;5091444;28;20028;-71
2023/03/21 03:04:49;;;;;;;5.88;2.45;;;10.50;99.90;;;;;;5091815;28;20392;-71
2023/03/21 03:07:35;;;;;;;1.65;1.10;;;10.40;99.90;;;;;;5091476;28;20035;-72
2023/03/21 03:10:23;;;;;;;1.67;1.20;;;10.30;99.90;;;;;;5091532;28;20094;-71
2023/03/21 03:13:02;;;;;;;4.55;1.13;;;10.40;99.90;;;;;;5091328;28;20492;-72
2023/03/21 03:15:54;;;;;;;0.45;0.45;;;10.40;99.90;;;;;;5091678;28;20028;-71
2023/03/21 03:18:35;;;;;;;6.60;1.67;;;10.30;99.90;;;;;;5091312;28;20024;-71
2023/03/21 03:21:04;;;;;;;1.23;1.13;;;10.30;99.90;;;;;;5070468;28;20021;-71
2023/03/21 03:23:36;;;;;;;2.22;1.58;;;10.30;99.90;;;;;;5072265;28;20431;-72
2023/03/21 03:26:04;;;;;;;;;;;10.40;99.90;;;;;;5071390;28;20020;-71
2023/03/21 03:28:36;;;;;;;4.35;1.55;;;10.40;99.90;;;;;;5054601;28;19930;-71
2023/03/21 03:31:11;;;;;;;7.53;1.23;;;10.40;99.90;;;;;;5071308;28;20123;-71
2023/03/21 03:33:45;;;;;;;2.17;1.77;;;10.50;99.90;;;;;;5071009;28;20044;-71
2023/03/21 03:36:14;;;;;;;0.75;0.68;;;10.50;99.90;;;;;;5071213;28;20087;-72
2023/03/21 03:38:41;;;;;;;0.65;0.65;;;10.50;99.90;;;;;;5070527;28;20032;-71
2023/03/21 03:41:14;;;;;;;2.75;0.90;;;10.50;99.90;;;;;;5054212;28;20041;-71
2023/03/21 03:43:52;;;;;;;6.32;2.55;;;10.60;99.90;;;;;;5070957;28;20492;-71
2023/03/21 03:46:43;;;;;;;0.32;0.32;;;10.50;99.90;;;;;;5069899;28;20017;-72
2023/03/21 03:49:18;;;;;;;0.50;0.22;;;10.50;99.90;;;;;;5071071;28;20025;-72
2023/03/21 03:52:00;;;;;;;0.73;0.55;;;10.60;99.90;;;;;;5070854;28;20025;-71
2023/03/21 03:54:45;;;;;;;1.40;0.88;;;10.60;99.90;;;;;;5070973;28;20066;-71
2023/03/21 03:57:12;;;;;;;0.20;0.20;;;10.60;99.90;;;;;;5070768;28;20025;-72
2023/03/21 03:59:41;;;;;;;4.45;1.77;;;10.70;99.90;;;;;;5070841;28;20182;-71
2023/03/21 04:02:21;;;;;;;10.43;2.72;;;10.60;99.90;;;;;;5056128;28;20115;-71
2023/03/21 04:04:52;;;;;;;5.05;2.72;;;10.70;99.90;;;;;;5070655;28;20158;-71
2023/03/21 04:07:20;;;;;;;4.63;0.85;;;10.70;99.90;;;;;;5055789;28;20031;-71
2023/03/21 04:09:46;;;;;;;3.92;0.75;;;10.70;99.90;;;;;;5057723;28;20033;-72
2023/03/21 04:12:16;;;;;;;12.23;2.05;;;10.70;99.90;;;;;;5074542;28;20036;-72
2023/03/21 04:14:54;;;;;;;2.33;0.52;;;10.70;99.90;;;;;;5074284;28;20162;-71
2023/03/21 04:17:20;;;;;;;0.20;0.20;;;10.80;99.90;;;;;;5074321;28;20036;-71
2023/03/21 04:19:50;;;;;;;0.17;0.17;;;10.80;99.90;;;;;;5074432;28;20560;-71
2023/03/21 04:22:17;;;;;;;0.65;0.65;;;10.90;99.90;;;;;;5075678;28;20032;-71
2023/03/21 04:24:43;;;;;;;5.05;1.20;;;10.80;99.90;;;;;;5057299;28;20024;-71
2023/03/21 04:27:09;;;;;;;1.38;0.73;;;10.80;99.90;;;;;;5074208;28;20502;-71
2023/03/21 04:29:40;;;;;;;2.25;0.95;;;10.70;99.90;;;;;;5073934;28;20021;-72
2023/03/21 04:32:25;;;;;;;0.98;0.43;;;10.80;99.90;;;;;;5074241;28;20040;-71
2023/03/21 04:35:01;;;;;;;2.00;1.60;;;10.80;99.90;;;;;;5074039;28;20027;-72
2023/03/21 04:37:27;;;;;;;0.55;0.55;;;10.80;99.90;;;;;;5074010;28;20039;-72
2023/03/21 04:39:53;;;;;;;3.55;1.40;;;10.70;99.90;;;;;;5073477;28;20032;-72
2023/03/21 04:42:20;;;;;;;2.20;2.03;;;10.70;99.90;;;;;;5074059;28;20041;-71
2023/03/21 04:44:48;;;;;;;1.20;0.90;;;10.70;99.90;;;;;;5075191;28;20074;-72
2023/03/21 04:47:19;;;;;;;1.25;1.13;;;10.80;99.90;;;;;;5073815;28;20021;-71
2023/03/21 04:49:47;;;;;;;;;;;10.90;99.90;;;;;;5074046;28;20025;-72
2023/03/21 04:52:13;;;;;;;0.85;0.82;;;11.10;99.90;;;;;;5073904;28;20370;-71
2023/03/21 04:54:39;;;;;;;0.95;0.68;;;11.00;99.90;;;;;;5073456;28;20389;-72
2023/03/21 04:57:05;;;;;;;0.55;0.55;;;10.90;99.90;;;;;;5075042;28;20032;-71
2023/03/21 04:59:31;;;;;;;0.73;0.68;;;10.80;99.90;;;;;;5074807;28;20060;-72
2023/03/21 05:01:57;;;;;;;3.25;0.90;;;10.90;99.90;;;;;;5073542;28;20503;-71
2023/03/21 05:04:25;;;;;;;4.47;1.48;;;10.90;99.90;;;;;;5074597;28;20025;-71
2023/03/21 05:06:51;;;;;;;7.13;2.17;;;10.90;99.90;;;;;;5074955;28;20036;-72
2023/03/21 05:09:17;;;;;;;3.25;1.85;;;10.80;99.90;;;;;;5074898;28;20069;-72
2023/03/21 05:11:43;;;;;;;0.88;0.80;;;10.90;99.90;;;;;;5073796;28;20119;-71
2023/03/21 05:14:15;;;;;;;1.35;1.10;;;10.80;99.90;;;;;;5073126;28;20016;-71
2023/03/21 05:16:54;;;;;;;0.63;0.63;;;10.90;99.90;;;;;;5073562;28;20040;-71
2023/03/21 05:19:33;;;;;;;0.20;0.20;;;11.00;99.90;;;;;;5072056;28;20032;-71
2023/03/21 05:22:10;;;;;;;1.27;0.95;;;10.90;99.90;;;;;;5056190;28;20036;-71
2023/03/21 05:24:40;;;;;;;4.90;2.33;;;10.90;99.90;;;;;;5073275;28;20043;-72
2023/03/21 05:27:13;;;;;;;2.17;0.25;;;10.90;99.90;;;;;;5073336;28;20036;-71
2023/03/21 05:29:43;;;;;;;3.47;1.48;;;10.90;99.90;;;;;;5072463;28;20107;-71
2023/03/21 05:32:10;;;;;;;11.40;1.95;;;10.80;99.90;;;;;;5072983;28;20116;-73
2023/03/21 05:34:35;;;;;;;1.00;0.93;;;10.70;99.90;;;;;;5074241;28;20496;-71
2023/03/21 05:37:01;;;;;;;7.78;2.80;;;10.90;99.90;;;;;;5072720;28;20028;-71
2023/03/21 05:39:39;;;;;;;4.78;2.85;;;10.90;99.90;;;;;;5072662;28;20483;-71
2023/03/21 05:42:12;;;;;;;27.15;2.83;;;10.80;99.90;;;;;;5072792;28;20067;-71
2023/03/21 05:44:39;;;;;;;4.30;1.58;;;10.70;99.90;;;;;;5072863;28;20021;-71
2023/03/21 05:47:07;;;;;;;0.65;0.65;;;10.70;99.90;;;;;;5072662;28;20031;-71
2023/03/21 05:49:41;;;;;;;6.20;2.15;;;10.70;99.90;;;;;;5072691;28;20021;-71
2023/03/21 05:52:08;;;;;;;1.30;1.10;;;10.70;99.90;;;;;;5071918;28;20060;-71
2023/03/21 05:54:34;;;;;;;4.93;2.08;;;10.70;99.90;;;;;;5072769;28;20029;-71
2023/03/21 05:57:00;;;;;;;1.13;0.68;;;10.60;99.90;;;;;;5072315;28;20021;-71
2023/03/21 05:59:46;;;;;;;4.60;2.05;;;10.70;99.90;;;;;;5073615;28;20183;-71
2023/03/21 06:02:11;;;;;;;2.15;1.98;;;10.80;99.90;;;;;;5071988;28;20116;-73
2023/03/21 06:04:38;;;;;;;0.20;0.17;;;10.90;99.90;;;;;;5072481;28;20025;-71
2023/03/21 06:07:04;;;;;;;0.50;0.50;;;10.90;99.90;;;;;;5071949;28;20036;-70
2023/03/21 06:09:30;;;;;;;2.53;1.00;;;10.90;99.90;;;;;;5072302;28;20031;-73
2023/03/21 06:11:59;;;;;;;0.43;0.43;;;10.80;99.90;;;;;;5071869;28;20041;-71
2023/03/21 06:14:31;;;;;;;0.20;0.20;;;10.90;99.90;;;;;;5071977;28;20025;-71
2023/03/21 06:17:11;;;;;;;17.35;0.65;;;11.00;99.90;;;;;;5071668;28;20419;-71
2023/03/21 06:19:44;;;;;;;6.25;1.13;;;11.10;99.90;;;;;;5071927;28;20093;-71
2023/03/21 06:22:16;;;;;;;8.23;1.73;;;11.00;99.90;;;;;;5071403;28;20076;-71
2023/03/21 06:24:42;;;;;;;2.67;1.38;;;10.60;99.90;;;;;;5072090;28;20048;-71
2023/03/21 06:27:08;;;;;;;1.55;1.45;;;10.60;99.90;;;;;;5071840;28;20055;-71
2023/03/21 06:29:49;;;;;;;0.55;0.55;;;10.50;99.90;;;;;;5071814;28;20028;-70
2023/03/21 06:32:16;;;;;;;2.53;0.43;;;10.50;99.90;;;;;;5071896;28;20030;-70
2023/03/21 06:34:43;;;;;;;5.43;1.08;;;10.50;99.90;;;;;;5071447;28;20077;-73
2023/03/21 06:37:12;;;;;;;4.60;2.42;;;10.60;99.90;;;;;;5055521;28;20381;-73
2023/03/21 06:39:38;;;;;;;2.47;1.60;;;10.50;99.90;;;;;;5071606;28;20025;-69
2023/03/21 06:42:04;;;;;;;4.05;2.05;;;10.50;99.90;;;;;;5072860;28;20064;-70
2023/03/21 06:44:30;;;;;;;4.30;2.20;;;10.60;99.90;;;;;;5071657;28;20393;-70
2023/03/21 06:47:01;;;;;;;3.78;1.38;;;10.50;99.90;;;;;;5065358;28;20364;-73
2023/03/21 06:49:27;;;;;;;1.75;1.55;;;10.50;99.90;;;;;;5075706;28;20107;-71
2023/03/21 06:51:55;;;;;;;0.63;0.52;;;10.60;99.90;;;;;;5073427;28;20089;-73
2023/03/21 06:54:22;;;;;;;8.63;2.83;;;10.50;99.90;;;;;;5054401;28;20120;-73
2023/03/21 06:56:58;;;;;;;1.27;0.85;;;10.50;99.90;;;;;;5082233;28;20028;-73
2023/03/21 06:59:30;;;;;;;3.42;3.08;;;10.50;99.90;;;;;;5066288;28;20101;-71
2023/03/21 07:02:22;;;;;;;7.85;2.63;;;10.40;99.90;;;;;;5067075;28;20449;-73
2023/03/21 07:05:00;;;;;;;3.97;2.83;;;10.40;99.90;;;;;;5072231;28;20031;-74
2023/03/21 07:07:28;;;;;;;3.70;2.40;;;10.40;99.90;;;;;;5042599;28;20365;-71
2023/03/21 07:09:55;;;;;;;3.17;1.73;;;10.40;99.90;;;;;;5084760;28;20020;-72
2023/03/21 07:12:22;;;;;;;1.92;0.98;;;10.40;99.90;;;;;;5076986;28;20016;-73
2023/03/21 07:15:09;;;;;;;6.15;4.45;;;10.40;99.90;;;;;;5069016;28;20036;-73
2023/03/21 07:17:35;;;;;;;7.65;3.50;;;10.40;99.90;;;;;;5058548;28;20090;-72
2023/03/21 07:20:05;;;;;;;3.13;1.27;;;10.50;99.90;;;;;;5086446;28;20465;-72
2023/03/21 07:22:31;;;;;;;6.22;3.35;;;10.50;99.90;;;;;;5078680;28;20029;-72
2023/03/21 07:24:57;;;;;;;0.38;0.38;;;10.70;99.90;;;;;;5077050;28;20040;-73
2023/03/21 07:27:23;;;;;;;1.90;1.27;;;10.70;99.90;;;;;;5074336;28;20020;-73
2023/03/21 07:29:49;;;;;;;36.03;3.45;;;10.70;99.90;;;;;;5074101;28;20029;-73
2023/03/21 07:32:15;;;;;;;3.72;2.42;;;10.60;99.90;;;;;;5070447;28;20020;-73
2023/03/21 07:34:41;;;;;;;0.55;0.55;;;10.60;99.90;;;;;;5081980;28;20036;-72
2023/03/21 07:37:07;;;;;;;3.28;2.03;;;10.70;99.90;;;;;;5080585;28;20032;-71
2023/03/21 07:39:34;;;;;;;4.50;2.65;;;10.60;99.90;;;;;;5080309;28;20471;-70
2023/03/21 07:42:00;;;;;;;3.13;2.25;;;10.60;99.90;;;;;;5073390;28;20077;-71
2023/03/21 07:44:35;;;;;;;2.40;1.27;;;10.60;99.90;;;;;;5072419;28;20039;-73
2023/03/21 07:47:03;;;;;;;7.65;3.40;;;10.60;99.90;;;;;;5076508;28;20043;-74
2023/03/21 07:49:30;;;;;;;4.57;1.67;;;10.70;99.90;;;;;;5062961;28;20020;-72
2023/03/21 07:51:56;;;;;;;5.40;2.55;;;10.70;99.90;;;;;;5080644;28;20052;-71
2023/03/21 07:54:22;;;;;;;13.38;3.55;;;10.70;99.90;;;;;;5075248;28;20102;-72
2023/03/21 07:56:48;;;;;;;2.53;2.33;;;10.60;99.90;;;;;;5077245;28;20043;-72
2023/03/21 07:59:14;;;;;;;10.68;3.30;;;10.70;99.90;;;;;;5076929;28;20024;-72
2023/03/21 08:01:39;;;;;;;3.95;2.42;;;10.80;99.90;;;;;;5085841;28;20034;-72
2023/03/21 08:04:05;;;;;;;10.80;3.00;;;10.80;99.90;;;;;;5077914;28;20044;-72
2023/03/21 08:06:31;;;;;;;2.88;1.67;;;10.90;99.90;;;;;;5074055;28;20016;-72
2023/03/21 08:09:00;;;;;;;0.50;0.50;;;10.90;99.90;;;;;;5076927;28;20073;-69
2023/03/21 08:11:30;;;;;;;3.05;1.25;;;10.80;99.90;;;;;;5069487;28;20143;-69
2023/03/21 08:13:56;;;;;;;2.03;1.08;;;11.00;99.90;;;;;;5082068;28;20036;-70
2023/03/21 08:16:22;;;;;;;1.70;1.33;;;11.10;99.90;;;;;;5076115;28;20369;-67
2023/03/21 08:18:48;;;;;;;1.90;1.75;;;11.10;99.90;;;;;;5072190;28;20025;-68
2023/03/21 08:21:14;;;;;;;2.22;1.05;;;11.10;99.90;;;;;;5078009;28;20479;-68
2023/03/21 08:23:40;;;;;;;1.02;0.70;;;11.10;99.90;;;;;;5085896;28;20039;-68
2023/03/21 08:26:06;;;;;;;0.40;0.40;;;11.20;99.90;;;;;;5078783;28;20048;-69
2023/03/21 08:28:32;;;;;;;1.13;1.13;;;11.30;99.90;;;;;;5075790;28;20110;-71
2023/03/21 08:30:58;;;;;;;1.35;1.25;;;11.40;99.90;;;;;;5075719;28;20433;-70
2023/03/21 08:33:24;;;;;;;7.00;2.00;;;11.40;99.90;;;;;;5064913;28;20111;-68
2023/03/21 08:35:49;;;;;;;1.20;1.08;;;11.40;99.90;;;;;;5085768;28;20024;-69
2023/03/21 08:38:15;;;;;;;1.75;1.25;;;11.40;99.90;;;;;;5081923;28;20028;-69
2023/03/21 08:40:41;;;;;;;1.75;1.33;;;11.60;99.90;;;;;;5065750;28;20091;-72
2023/03/21 08:43:07;;;;;;;1.42;1.25;;;11.60;99.90;;;;;;5061904;28;20083;-70
2023/03/21 08:45:33;;;;;;;7.35;2.30;;;11.60;99.90;;;;;;5075363;28;20023;-68
2023/03/21 08:47:59;;;;;;;6.28;1.75;;;11.60;99.90;;;;;;5080356;28;20495;-71
2023/03/21 08:50:28;;;;;;;3.25;1.42;;;11.70;99.90;;;;;;5075741;28;20043;-68
2023/03/21 08:52:54;;;;;;;5.13;1.80;;;11.80;99.90;;;;;;5065956;28;20021;-69
2023/03/21 08:55:20;;;;;;;8.45;2.55;;;11.80;99.90;;;;;;5057303;28;20435;-67
2023/03/21 08:57:46;;;;;;;0.35;0.25;;;12.10;99.90;;;;;;5064427;28;20104;-68
2023/03/21 09:00:16;;;;;;;2.08;1.55;;;12.20;99.90;;;;;;5072680;28;20036;-67
2023/03/21 09:02:47;;;;;;;1.80;1.60;;;12.30;99.90;;;;;;5071861;28;20510;-69
2023/03/21 09:05:13;;;;;;;1.23;0.80;;;12.30;99.90;;;;;;5073800;28;20020;-68
2023/03/21 09:07:40;;;;;;;4.90;2.65;;;12.40;99.90;;;;;;5074132;28;20395;-68
2023/03/21 09:10:09;;;;;;;5.45;2.42;;;12.30;99.90;;;;;;5072783;28;20043;-67
2023/03/21 09:12:35;;;;;;;5.22;1.40;;;12.20;99.90;;;;;;5074470;28;20078;-68
2023/03/21 09:15:01;;;;;;;6.07;2.22;;;12.40;99.90;;;;;;5074286;28;20040;-68
2023/03/21 09:17:33;;;;;;;0.55;0.55;;;12.40;99.90;;;;;;5074481;28;20082;-68
2023/03/21 09:20:09;;;;;;;;;;;12.40;99.90;;;;;;5074982;28;20037;-68
2023/03/21 09:22:36;;;;;;;6.35;1.90;;;12.60;99.90;;;;;;5074253;28;19916;-68
2023/03/21 09:25:06;;;;;;;2.33;2.13;;;12.60;99.90;;;;;;5074462;28;20410;-68
2023/03/21 09:27:32;;;;;;;1.55;1.20;;;12.40;99.90;;;;;;5074326;28;20082;-69
2023/03/21 09:29:58;;;;;;;5.10;2.35;;;12.40;99.90;;;;;;5072803;28;20526;-69
2023/03/21 09:32:24;;;;;;;2.55;1.27;;;12.50;99.90;;;;;;5074465;28;20041;-67
2023/03/21 09:34:54;;;;;;;2.10;1.00;;;12.50;99.90;;;;;;5074313;28;20372;-68
2023/03/21 09:37:20;;;;;;;2.20;1.10;;;12.60;99.90;;;;;;5074349;28;20043;-69
2023/03/21 09:39:49;;;;;;;2.17;1.08;;;12.70;99.90;;;;;;5074030;28;20033;-68
2023/03/21 09:42:54;;;;;;;0.90;0.80;;;12.70;99.90;;;;;;5073407;28;20075;-69
2023/03/21 09:45:25;;;;;;;11.73;3.22;;;12.60;99.90;;;;;;5058567;28;20481;-67
2023/03/21 09:47:55;;;;;;;1.90;1.42;;;12.50;99.90;;;;;;5074006;28;20055;-68
2023/03/21 09:50:34;;;;;;;0.15;0.15;;;12.50;99.90;;;;;;5073714;28;20500;-68
2023/03/21 09:53:17;;;;;;;5.82;1.27;;;12.60;99.90;;;;;;5072819;28;20071;-67
2023/03/21 09:55:43;;;;;;;0.98;0.47;;;12.70;99.90;;;;;;5061534;28;20020;-67
2023/03/21 09:58:29;;;;;;;2.78;1.33;;;12.80;99.90;;;;;;5073716;28;20124;-68
2023/03/21 10:01:21;;;;;;;4.28;1.77;;;12.60;99.90;;;;;;5062024;28;20028;-67
2023/03/21 10:03:52;;;;;;;9.73;1.58;;;12.60;99.90;;;;;;5073788;28;20041;-68
2023/03/21 10:06:18;;;;;;;6.05;2.45;;;12.80;99.90;;;;;;5073088;28;20028;-68
2023/03/21 10:08:49;;;;;;;1.45;1.17;;;12.80;99.90;;;;;;5073510;28;20400;-67
2023/03/21 10:11:21;;;;;;;10.80;1.92;;;12.80;99.90;;;;;;5073499;28;20134;-68
2023/03/21 10:13:58;;;;;;;8.00;1.85;;;12.60;99.90;;;;;;5073351;28;20047;-68
2023/03/21 10:16:29;;;;;;;9.60;1.02;;;12.80;99.90;;;;;;5073440;28;20039;-68
2023/03/21 10:18:56;;;;;;;2.20;1.88;;;12.70;99.90;;;;;;5072069;28;20108;-67
2023/03/21 10:21:26;;;;;;;0.10;0.10;;;12.80;99.90;;;;;;5073060;28;20020;-68
2023/03/21 10:23:56;;;;;;;2.15;0.75;;;12.90;99.90;;;;;;5072215;28;20346;-69
2023/03/21 10:26:26;;;;;;;3.40;2.38;;;13.10;99.90;;;;;;5073225;28;20025;-67
2023/03/21 10:28:55;;;;;;;3.88;1.30;;;13.20;99.90;;;;;;5072049;28;20041;-69
2023/03/21 10:31:27;;;;;;;6.63;2.83;;;13.20;99.90;;;;;;5072819;28;20029;-69
2023/03/21 10:33:56;;;;;;;5.43;1.92;;;13.10;99.90;;;;;;5071977;28;20119;-69
2023/03/21 10:36:27;;;;;;;4.10;1.85;;;12.80;99.90;;;;;;5072997;28;20074;-67
2023/03/21 10:38:59;;;;;;;1.55;1.15;;;12.70;99.90;;;;;;5072995;28;20219;-69
2023/03/21 10:41:25;;;;;;;1.98;0.95;;;12.50;99.90;;;;;;5071124;28;20025;-67
2023/03/21 10:44:04;;;;;;;3.42;2.45;;;12.80;99.90;;;;;;5073127;28;20070;-68
2023/03/21 10:46:30;;;;;;;4.18;2.28;;;12.70;99.90;;;;;;5072717;28;20020;-67
2023/03/21 10:48:55;;;;;;;2.50;1.52;;;12.80;99.90;;;;;;5073064;28;20385;-69
2023/03/21 10:51:27;;;;;;;13.30;3.10;;;12.80;99.90;;;;;;5072940;28;20078;-68
2023/03/21 10:54:12;;;;;;;1.27;1.17;;;12.70;99.90;;;;;;5072989;28;20052;-68
2023/03/21 10:56:44;;;;;;;4.22;2.10;;;12.70;99.90;;;;;;5072318;28;20074;-69
2023/03/21 10:59:17;;;;;;;1.80;0.80;;;12.80;99.90;;;;;;5072922;28;20465;-69
2023/03/21 11:01:48;;;;;;;6.20;2.15;;;12.70;99.90;;;;;;5071424;28;20078;-69
2023/03/21 11:04:17;;;;;;;7.35;3.70;;;12.60;99.90;;;;;;5072774;28;20041;-69
2023/03/21 11:06:53;;;;;;;3.15;1.85;;;12.60;99.90;;;;;;5072647;28;20112;-69
2023/03/21 11:09:23;;;;;;;4.68;2.40;;;12.60;99.90;;;;;;5060291;28;20025;-69
2023/03/21 11:12:17;;;;;;;2.55;1.77;;;12.50;99.90;;;;;;5071166;28;20086;-69
2023/03/21 11:14:48;;;;;;;4.90;1.48;;;12.70;99.90;;;;;;5062518;28;20025;-69
2023/03/21 11:17:17;;;;;;;1.80;1.65;;;12.60;99.90;;;;;;5071876;28;20040;-69
2023/03/21 11:20:04;;;;;;;17.70;2.58;;;12.60;99.90;;;;;;5072618;28;20033;-71
2023/03/21 11:22:42;;;;;;;2.38;2.17;;;12.70;99.90;;;;;;5072184;28;20040;-70
2023/03/21 11:25:18;;;;;;;4.68;1.98;;;12.90;99.90;;;;;;5072517;28;20028;-70
2023/03/21 11:27:53;;;;;;;2.30;1.70;;;12.90;99.90;;;;;;5072276;28;20452;-69
2023/03/21 11:30:25;;;;;;;3.15;1.98;;;13.00;99.90;;;;;;5072306;28;20369;-69
2023/03/21 11:33:00;;;;;;;11.38;3.83;;;13.80;99.90;;;;;;5070916;28;20476;-70
2023/03/21 11:35:35;;;;;;;8.25;1.52;;;13.40;99.90;;;;;;5072328;28;20033;-69
2023/03/21 11:38:02;;;;;;;2.15;1.55;;;14.40;99.90;;;;;;5071911;28;20047;-67
2023/03/21 11:40:33;;;;;;;5.38;2.25;;;14.90;99.90;;;;;;5072063;28;20103;-69
2023/03/21 11:43:23;;;;;;;2.23;1.67;;;14.90;99.90;;;;;;5072277;28;20107;-69
2023/03/21 11:45:57;;;;;;;3.15;1.63;;;15.20;99.90;;;;;;5072271;28;20043;-68
2023/03/21 11:48:23;;;;;;;2.65;1.85;;;15.00;99.90;;;;;;5071953;28;20117;-68
2023/03/21 11:50:55;;;;;;;5.05;1.95;;;15.10;99.90;;;;;;5072337;28;20067;-72
2023/03/21 11:53:34;;;;;;;;;;;14.90;99.90;;;;;;5072171;28;20028;-66
2023/03/21 11:56:26;;;;;;;6.93;2.60;;;15.00;99.90;;;;;;5072420;28;19915;-68
2023/03/21 11:59:19;;;;;;;10.40;2.53;;;14.90;99.90;;;;;;5072256;28;20058;-67
2023/03/21 12:01:51;;;;;;;2.53;1.67;;;14.30;99.90;;;;;;5071906;28;20124;-67
2023/03/21 12:04:36;;;;;;;4.43;1.75;;;14.40;99.90;;;;;;5072153;28;20035;-68
2023/03/21 12:07:14;;;;;;;6.75;1.42;;;14.30;99.90;;;;;;5072153;28;20032;-69
2023/03/21 12:09:52;;;;;;;0.50;0.50;;;14.20;99.90;;;;;;5071977;28;20029;-68
2023/03/21 12:12:25;;;;;;;5.32;1.80;;;14.20;99.90;;;;;;5072115;28;20043;-68
2023/03/21 12:15:19;;;;;;;6.47;1.33;;;14.10;99.90;;;;;;5071955;28;20117;-70
2023/03/21 12:17:56;;;;;;;5.70;2.88;;;13.70;99.90;;;;;;5058527;28;20036;-67
2023/03/21 12:20:21;;;;;;;6.43;1.45;;;13.70;99.90;;;;;;5071845;28;20033;-70
2023/03/21 12:22:47;;;;;;;3.17;1.65;;;13.80;99.90;;;;;;5071724;28;20049;-70
2023/03/21 12:25:43;;;;;;;4.95;1.50;;;14.10;99.90;;;;;;5071785;28;20016;-72
2023/03/21 12:28:18;;;;;;;1.88;1.23;;;14.00;99.90;;;;;;5060082;28;20447;-70
2023/03/21 12:30:58;;;;;;;6.25;2.65;;;13.80;99.90;;;;;;5075540;28;20059;-70
2023/03/21 12:33:36;;;;;;;1.55;1.17;;;13.90;99.90;;;;;;5075365;28;20039;-70
2023/03/21 12:36:09;;;;;;;0.55;0.55;;;14.00;99.90;;;;;;5075477;28;20021;-70
2023/03/21 12:39:10;;;;;;;5.97;1.80;;;14.10;99.90;;;;;;5061273;28;20077;-70
2023/03/21 12:41:42;;;;;;;0.00;0.00;;;13.80;99.90;;;;;;5066601;28;20041;-71
2023/03/21 12:44:15;;;;;;;6.50;3.08;;;14.00;99.90;;;;;;5075191;28;20109;-71
2023/03/21 12:46:46;;;;;;;3.88;2.15;;;14.10;99.90;;;;;;5073738;28;20146;-69
2023/03/21 12:49:31;;;;;;;3.38;2.05;;;14.20;99.90;;;;;;5075092;28;20039;-69
2023/03/21 12:52:15;;;;;;;1.30;0.88;;;14.30;99.90;;;;;;5070960;28;20021;-70
2023/03/21 12:54:50;;;;;;;4.88;1.52;;;14.00;99.90;;;;;;5074980;28;20539;-69
2023/03/21 12:57:20;;;;;;;5.32;1.90;;;14.20;99.90;;;;;;5075288;28;20116;-71
2023/03/21 13:00:00;;;;;;;3.05;2.03;;;14.30;99.90;;;;;;5073389;28;20455;-70
2023/03/21 13:02:32;;;;;;;0.82;0.77;;;14.20;99.90;;;;;;5061485;28;20048;-70
2023/03/21 13:05:30;;;;;;;3.33;2.03;;;14.30;99.90;;;;;;5074990;28;20086;-70
2023/03/21 13:08:12;;;;;;;2.47;1.38;;;14.00;99.90;;;;;;5073268;28;20051;-69
2023/03/21 13:10:40;;;;;;;2.65;1.05;;;13.80;99.90;;;;;;5074548;28;20086;-70
2023/03/21 13:13:30;;;;;;;2.38;1.60;;;13.90;99.90;;;;;;5075022;28;20566;-71